Storrie, California
Current Conditions -  °F | °C
As of 6:55 PM on Tuesday 21 Oct 2014 (Local Time) from KCIC Reporting Station
Clear Clear  
Wind Chill: 63°   Ceiling: Unl
Heat Index: 63°   Visibility: 10mi
Dew Point: 41°   Wind: 8mph
Humidity: 45%   Direction: 310°NW
Pressure: 30"   Gusts: NA
Location:  39.92°N, 121.32°W
Report Text: KCIC 220155Z AUTO 31007KT 10SM CLR 17/05 A3000 RMK AO1
Loading
Personal Weather Stations






























Interactive Weather Map
Tropical Storm Tracking
New forecast layout! Learn more

10-Day Weather Forecast

Advertisements
Track Severe Weather on mobile